Vida, Montana
Current Conditions -  °F | °C
As of 6:04 AM on Sunday 23 Nov 2014 (Local Time) from KOLF Reporting Station
Light Snow Light Snow  
Wind Chill: 11°   Ceiling: 2800
Heat Index: 27°   Visibility: 3mi
Dew Point: 19°   Wind: 30mph
Humidity: 72%   Direction: 310°NW
Pressure: 29.66"   Gusts: 38mph
Location:  47.83°N, 105.49°W
Report Text: KOLF 231304Z AUTO 31026G33KT 3SM -SN OVC028 M03/M07 A2966 RMK AO2 PK WND 30033/1300 P0000 T10281072
Loading
Personal Weather Stations






























Interactive Weather Map New forecast layout! Learn more

10-Day Weather Forecast

Advertisements
Track Severe Weather on mobile